Terminal Aerodrome Forecast
Issued by NWS Blacksburg, VA

Home | Current Version | Previous Version | Text Only | Print | Product List | Glossary On
Versions: 1 2 3 4 5 6 7 8 9 10 11 12 13 14 15 16 17 18 19 20 21 22 23 24 25 26 27 28 29 30 31 32 33 34 35 36 37 38 39 40 41 42
000
FTUS41 KRNK 042337
TAFROA
TAF
KROA 042337Z 0500/0524 32005KT P6SM SCT035 BKN080
     FM051100 04003KT P6SM OVC050
     FM051500 12005KT P6SM -SHRA OVC040
     FM051900 11005KT 5SM -TSRA OVC035CB=

USA.gov is the U.S. government's official web portal to all federal, state and local government web resources and services.